createdAt,value
2023-03-04T00:16:17.036Z,5.70
2023-03-04T00:36:16.732Z,2.90
2023-03-04T00:56:16.467Z,2.20
2023-03-04T01:16:16.214Z,3.70
2023-03-04T01:36:15.922Z,2.20
2023-03-04T01:56:15.682Z,1.60
2023-03-04T02:16:15.411Z,1.80
2023-03-04T02:36:15.098Z,2.40
2023-03-04T02:56:14.847Z,1.60
2023-03-04T03:16:14.584Z,2.80
2023-03-04T03:36:14.295Z,2.00
2023-03-04T03:56:14.025Z,1.30
2023-03-04T04:16:13.760Z,1.60
2023-03-04T04:36:13.536Z,3.70
2023-03-04T04:56:13.177Z,1.90
2023-03-04T05:16:13.045Z,1.60
2023-03-04T05:36:12.686Z,2.40
2023-03-04T05:56:12.412Z,2.10
2023-03-04T06:16:12.214Z,3.40
2023-03-04T06:36:11.816Z,3.50
2023-03-04T06:56:11.518Z,6.40
2023-03-04T07:16:11.320Z,5.10
2023-03-04T07:36:10.983Z,3.50
2023-03-04T07:56:10.710Z,4.30
2023-03-04T08:16:10.465Z,5.90
2023-03-04T08:36:10.219Z,5.10
2023-03-04T08:56:09.904Z,8.10
2023-03-04T09:16:09.679Z,5.50
2023-03-04T09:36:09.352Z,5.20
2023-03-04T09:56:09.084Z,5.70
2023-03-04T10:16:08.863Z,5.80
2023-03-04T10:36:08.534Z,2.80
2023-03-04T10:56:08.455Z,3.50
2023-03-04T11:16:08.058Z,3.70
2023-03-04T11:36:07.783Z,5.70
2023-03-04T11:56:07.435Z,4.00
2023-03-04T12:16:07.205Z,3.00
2023-03-04T12:36:06.896Z,5.60
2023-03-04T12:56:09.902Z,2.50
2023-03-04T13:16:06.385Z,3.20
2023-03-04T13:36:06.067Z,3.60
2023-03-04T13:56:05.786Z,3.10
2023-03-04T14:16:05.508Z,5.60
2023-03-04T14:36:05.228Z,3.70
2023-03-04T14:56:04.983Z,1.40
2023-03-04T15:16:04.750Z,3.50
2023-03-04T15:36:04.457Z,2.90
2023-03-04T15:56:04.151Z,4.10
2023-03-04T16:16:03.903Z,3.90
2023-03-04T16:36:03.655Z,3.50
2023-03-04T16:56:03.308Z,4.20
2023-03-04T17:16:03.185Z,2.50
2023-03-04T17:36:02.750Z,2.90
2023-03-04T17:56:02.483Z,1.20
2023-03-04T18:16:02.297Z,1.20
2023-03-04T18:36:01.945Z,2.60
2023-03-04T18:56:01.722Z,0.80
2023-03-04T19:16:01.404Z,3.80
2023-03-04T19:36:01.167Z,2.60
2023-03-04T19:56:00.851Z,1.90
2023-03-04T20:16:00.612Z,1.00
2023-03-04T20:36:00.315Z,2.00
2023-03-04T20:56:00.088Z,1.00
2023-03-04T21:15:59.819Z,0.30
2023-03-04T21:35:59.562Z,1.20
2023-03-04T21:55:59.308Z,1.50
2023-03-04T22:15:59.068Z,1.60
2023-03-04T22:35:58.777Z,1.20
2023-03-04T22:55:58.492Z,0.40
2023-03-04T23:15:58.209Z,1.70
2023-03-04T23:35:58.016Z,1.50
2023-03-04T23:55:57.655Z,0.70
